sensor_id;sensor_type;location;lat;lon;timestamp;P1;durP1;ratioP1;P2;durP2;ratioP2
63046;SDS011;62025;39.238;9.126;2024-02-21T00:01:06;17.15;;;11.43;;
63046;SDS011;62025;39.238;9.126;2024-02-21T00:03:32;15.88;;;11.18;;
63046;SDS011;62025;39.238;9.126;2024-02-21T00:05:58;14.00;;;10.98;;
63046;SDS011;62025;39.238;9.126;2024-02-21T00:08:24;14.55;;;10.25;;
63046;SDS011;62025;39.238;9.126;2024-02-21T00:10:50;12.73;;;9.55;;
63046;SDS011;62025;39.238;9.126;2024-02-21T00:13:16;14.18;;;9.57;;
63046;SDS011;62025;39.238;9.126;2024-02-21T00:15:42;15.27;;;10.88;;
63046;SDS011;62025;39.238;9.126;2024-02-21T00:18:08;14.30;;;10.20;;
63046;SDS011;62025;39.238;9.126;2024-02-21T00:20:36;13.63;;;10.10;;
63046;SDS011;62025;39.238;9.126;2024-02-21T00:23:02;15.30;;;10.57;;
63046;SDS011;62025;39.238;9.126;2024-02-21T00:25:28;14.70;;;10.35;;
63046;SDS011;62025;39.238;9.126;2024-02-21T00:27:54;13.75;;;10.50;;
63046;SDS011;62025;39.238;9.126;2024-02-21T00:30:20;13.38;;;9.93;;
63046;SDS011;62025;39.238;9.126;2024-02-21T00:32:46;13.80;;;9.45;;
63046;SDS011;62025;39.238;9.126;2024-02-21T00:35:13;14.27;;;9.80;;
63046;SDS011;62025;39.238;9.126;2024-02-21T00:37:39;12.80;;;9.35;;
63046;SDS011;62025;39.238;9.126;2024-02-21T00:40:06;14.43;;;9.82;;
63046;SDS011;62025;39.238;9.126;2024-02-21T00:42:32;13.90;;;10.77;;
63046;SDS011;62025;39.238;9.126;2024-02-21T00:44:58;13.10;;;10.23;;
63046;SDS011;62025;39.238;9.126;2024-02-21T00:47:24;13.63;;;9.77;;
63046;SDS011;62025;39.238;9.126;2024-02-21T00:49:50;16.30;;;10.45;;
63046;SDS011;62025;39.238;9.126;2024-02-21T00:52:16;13.65;;;10.18;;
63046;SDS011;62025;39.238;9.126;2024-02-21T00:54:42;13.07;;;9.63;;
63046;SDS011;62025;39.238;9.126;2024-02-21T00:57:08;15.73;;;10.70;;
63046;SDS011;62025;39.238;9.126;2024-02-21T00:59:34;14.38;;;10.00;;
63046;SDS011;62025;39.238;9.126;2024-02-21T01:02:00;13.73;;;9.73;;
63046;SDS011;62025;39.238;9.126;2024-02-21T01:04:26;16.48;;;9.30;;
63046;SDS011;62025;39.238;9.126;2024-02-21T01:06:52;16.15;;;10.27;;
63046;SDS011;62025;39.238;9.126;2024-02-21T01:09:18;13.10;;;9.38;;
63046;SDS011;62025;39.238;9.126;2024-02-21T01:11:43;12.40;;;9.35;;
63046;SDS011;62025;39.238;9.126;2024-02-21T01:14:09;13.05;;;8.88;;
63046;SDS011;62025;39.238;9.126;2024-02-21T01:16:36;12.90;;;8.75;;
63046;SDS011;62025;39.238;9.126;2024-02-21T01:19:02;12.73;;;9.02;;
63046;SDS011;62025;39.238;9.126;2024-02-21T01:21:28;12.73;;;8.65;;
63046;SDS011;62025;39.238;9.126;2024-02-21T01:23:54;12.95;;;8.43;;
63046;SDS011;62025;39.238;9.126;2024-02-21T01:26:20;12.13;;;8.75;;
63046;SDS011;62025;39.238;9.126;2024-02-21T01:28:46;13.35;;;9.40;;
63046;SDS011;62025;39.238;9.126;2024-02-21T01:31:12;12.25;;;8.80;;
63046;SDS011;62025;39.238;9.126;2024-02-21T01:33:38;10.52;;;8.48;;
63046;SDS011;62025;39.238;9.126;2024-02-21T01:36:04;12.25;;;8.18;;
63046;SDS011;62025;39.238;9.126;2024-02-21T01:38:34;13.88;;;8.82;;
63046;SDS011;62025;39.238;9.126;2024-02-21T01:41:00;11.30;;;7.97;;
63046;SDS011;62025;39.238;9.126;2024-02-21T01:43:26;12.35;;;8.93;;
63046;SDS011;62025;39.238;9.126;2024-02-21T01:45:53;14.20;;;9.63;;
63046;SDS011;62025;39.238;9.126;2024-02-21T01:50:51;10.60;;;7.80;;
63046;SDS011;62025;39.238;9.126;2024-02-21T01:53:20;11.73;;;8.32;;
63046;SDS011;62025;39.238;9.126;2024-02-21T01:58:14;13.27;;;7.03;;
63046;SDS011;62025;39.238;9.126;2024-02-21T02:00:42;12.43;;;7.85;;
63046;SDS011;62025;39.238;9.126;2024-02-21T02:03:10;12.88;;;8.30;;
63046;SDS011;62025;39.238;9.126;2024-02-21T02:05:45;12.70;;;8.23;;
63046;SDS011;62025;39.238;9.126;2024-02-21T02:08:16;11.43;;;8.55;;
63046;SDS011;62025;39.238;9.126;2024-02-21T02:10:44;12.57;;;8.20;;
63046;SDS011;62025;39.238;9.126;2024-02-21T02:13:11;12.30;;;8.73;;
63046;SDS011;62025;39.238;9.126;2024-02-21T02:15:44;12.70;;;8.38;;
63046;SDS011;62025;39.238;9.126;2024-02-21T02:18:12;13.73;;;9.00;;
63046;SDS011;62025;39.238;9.126;2024-02-21T02:20:40;12.05;;;8.35;;
63046;SDS011;62025;39.238;9.126;2024-02-21T02:23:11;11.55;;;8.55;;
63046;SDS011;62025;39.238;9.126;2024-02-21T02:25:54;10.85;;;8.05;;
63046;SDS011;62025;39.238;9.126;2024-02-21T02:28:21;13.02;;;8.10;;
63046;SDS011;62025;39.238;9.126;2024-02-21T02:30:47;14.55;;;8.57;;
63046;SDS011;62025;39.238;9.126;2024-02-21T02:33:14;11.43;;;8.10;;
63046;SDS011;62025;39.238;9.126;2024-02-21T02:35:42;13.33;;;9.00;;
63046;SDS011;62025;39.238;9.126;2024-02-21T02:38:08;11.68;;;8.20;;
63046;SDS011;62025;39.238;9.126;2024-02-21T02:40:36;11.70;;;8.15;;
63046;SDS011;62025;39.238;9.126;2024-02-21T02:43:03;11.23;;;8.38;;
63046;SDS011;62025;39.238;9.126;2024-02-21T02:45:29;11.95;;;8.25;;
63046;SDS011;62025;39.238;9.126;2024-02-21T02:47:55;12.73;;;8.23;;
63046;SDS011;62025;39.238;9.126;2024-02-21T02:50:25;13.00;;;8.85;;
63046;SDS011;62025;39.238;9.126;2024-02-21T02:52:52;15.00;;;9.00;;
63046;SDS011;62025;39.238;9.126;2024-02-21T02:55:19;11.85;;;9.02;;
63046;SDS011;62025;39.238;9.126;2024-02-21T02:57:45;12.57;;;8.40;;
63046;SDS011;62025;39.238;9.126;2024-02-21T03:00:12;11.35;;;8.55;;
63046;SDS011;62025;39.238;9.126;2024-02-21T03:02:40;13.52;;;8.75;;
63046;SDS011;62025;39.238;9.126;2024-02-21T03:05:17;14.07;;;9.60;;
63046;SDS011;62025;39.238;9.126;2024-02-21T03:07:46;12.07;;;8.23;;
63046;SDS011;62025;39.238;9.126;2024-02-21T03:10:13;12.02;;;8.93;;
63046;SDS011;62025;39.238;9.126;2024-02-21T03:12:41;12.32;;;8.50;;
63046;SDS011;62025;39.238;9.126;2024-02-21T03:15:07;11.30;;;8.68;;
63046;SDS011;62025;39.238;9.126;2024-02-21T03:17:34;15.05;;;9.05;;
63046;SDS011;62025;39.238;9.126;2024-02-21T03:20:03;12.27;;;8.63;;
63046;SDS011;62025;39.238;9.126;2024-02-21T03:22:36;12.15;;;8.50;;
63046;SDS011;62025;39.238;9.126;2024-02-21T03:25:02;11.20;;;8.20;;
63046;SDS011;62025;39.238;9.126;2024-02-21T03:27:29;13.32;;;8.73;;
63046;SDS011;62025;39.238;9.126;2024-02-21T03:29:55;11.02;;;8.23;;
63046;SDS011;62025;39.238;9.126;2024-02-21T03:32:21;12.05;;;7.95;;
63046;SDS011;62025;39.238;9.126;2024-02-21T03:34:47;11.98;;;8.30;;
63046;SDS011;62025;39.238;9.126;2024-02-21T03:37:13;10.40;;;7.85;;
63046;SDS011;62025;39.238;9.126;2024-02-21T03:39:39;10.32;;;8.32;;
63046;SDS011;62025;39.238;9.126;2024-02-21T03:42:06;10.05;;;7.65;;
63046;SDS011;62025;39.238;9.126;2024-02-21T03:44:32;12.43;;;7.55;;
63046;SDS011;62025;39.238;9.126;2024-02-21T03:46:58;11.68;;;7.97;;
63046;SDS011;62025;39.238;9.126;2024-02-21T03:49:25;11.80;;;8.27;;
63046;SDS011;62025;39.238;9.126;2024-02-21T03:51:51;11.80;;;7.97;;
63046;SDS011;62025;39.238;9.126;2024-02-21T03:54:18;12.07;;;8.07;;
63046;SDS011;62025;39.238;9.126;2024-02-21T03:56:44;10.15;;;8.02;;
63046;SDS011;62025;39.238;9.126;2024-02-21T03:59:12;11.48;;;7.75;;
63046;SDS011;62025;39.238;9.126;2024-02-21T04:01:39;11.73;;;8.45;;
63046;SDS011;62025;39.238;9.126;2024-02-21T04:04:05;11.80;;;8.63;;
63046;SDS011;62025;39.238;9.126;2024-02-21T04:06:30;12.75;;;8.32;;
63046;SDS011;62025;39.238;9.126;2024-02-21T04:08:56;14.05;;;8.90;;
63046;SDS011;62025;39.238;9.126;2024-02-21T04:11:22;13.88;;;8.32;;
63046;SDS011;62025;39.238;9.126;2024-02-21T04:13:49;13.93;;;8.68;;
63046;SDS011;62025;39.238;9.126;2024-02-21T04:16:15;10.43;;;8.02;;
63046;SDS011;62025;39.238;9.126;2024-02-21T04:18:42;10.93;;;8.13;;
63046;SDS011;62025;39.238;9.126;2024-02-21T04:21:08;9.75;;;7.97;;
63046;SDS011;62025;39.238;9.126;2024-02-21T04:23:35;10.73;;;8.20;;
63046;SDS011;62025;39.238;9.126;2024-02-21T04:26:01;11.27;;;8.48;;
63046;SDS011;62025;39.238;9.126;2024-02-21T04:28:27;10.80;;;8.20;;
63046;SDS011;62025;39.238;9.126;2024-02-21T04:30:53;12.75;;;8.70;;
63046;SDS011;62025;39.238;9.126;2024-02-21T04:33:19;10.63;;;7.97;;
63046;SDS011;62025;39.238;9.126;2024-02-21T04:35:45;12.52;;;8.60;;
63046;SDS011;62025;39.238;9.126;2024-02-21T04:38:11;11.48;;;8.50;;
63046;SDS011;62025;39.238;9.126;2024-02-21T04:40:37;10.55;;;8.30;;
63046;SDS011;62025;39.238;9.126;2024-02-21T04:43:03;11.93;;;8.82;;
63046;SDS011;62025;39.238;9.126;2024-02-21T04:45:29;12.52;;;8.82;;
63046;SDS011;62025;39.238;9.126;2024-02-21T04:47:55;14.55;;;8.73;;
63046;SDS011;62025;39.238;9.126;2024-02-21T04:50:21;11.75;;;7.95;;
63046;SDS011;62025;39.238;9.126;2024-02-21T04:52:46;12.57;;;8.52;;
63046;SDS011;62025;39.238;9.126;2024-02-21T04:55:13;10.95;;;8.15;;
63046;SDS011;62025;39.238;9.126;2024-02-21T04:57:39;11.13;;;8.05;;
63046;SDS011;62025;39.238;9.126;2024-02-21T05:00:05;11.23;;;7.90;;
63046;SDS011;62025;39.238;9.126;2024-02-21T05:02:32;9.98;;;7.93;;
63046;SDS011;62025;39.238;9.126;2024-02-21T05:04:58;10.27;;;7.82;;
63046;SDS011;62025;39.238;9.126;2024-02-21T05:07:24;11.30;;;8.60;;
63046;SDS011;62025;39.238;9.126;2024-02-21T05:09:50;12.73;;;8.20;;
63046;SDS011;62025;39.238;9.126;2024-02-21T05:12:16;13.38;;;8.52;;
63046;SDS011;62025;39.238;9.126;2024-02-21T05:14:42;9.60;;;7.97;;
63046;SDS011;62025;39.238;9.126;2024-02-21T05:17:08;10.20;;;7.82;;
63046;SDS011;62025;39.238;9.126;2024-02-21T05:19:34;13.23;;;9.05;;
63046;SDS011;62025;39.238;9.126;2024-02-21T05:22:00;12.00;;;8.25;;
63046;SDS011;62025;39.238;9.126;2024-02-21T05:24:26;11.32;;;8.02;;
63046;SDS011;62025;39.238;9.126;2024-02-21T05:26:53;14.77;;;8.65;;
63046;SDS011;62025;39.238;9.126;2024-02-21T05:29:19;10.90;;;8.13;;
63046;SDS011;62025;39.238;9.126;2024-02-21T05:34:18;12.95;;;8.48;;
63046;SDS011;62025;39.238;9.126;2024-02-21T05:36:44;10.95;;;7.70;;
63046;SDS011;62025;39.238;9.126;2024-02-21T05:39:11;11.70;;;8.48;;
63046;SDS011;62025;39.238;9.126;2024-02-21T05:41:38;11.27;;;8.18;;
63046;SDS011;62025;39.238;9.126;2024-02-21T05:44:04;10.63;;;7.70;;
63046;SDS011;62025;39.238;9.126;2024-02-21T05:46:30;13.70;;;8.60;;
63046;SDS011;62025;39.238;9.126;2024-02-21T05:48:56;11.95;;;8.57;;
63046;SDS011;62025;39.238;9.126;2024-02-21T05:51:22;11.75;;;7.93;;
63046;SDS011;62025;39.238;9.126;2024-02-21T05:53:48;11.23;;;7.97;;
63046;SDS011;62025;39.238;9.126;2024-02-21T05:56:14;12.40;;;8.23;;
63046;SDS011;62025;39.238;9.126;2024-02-21T05:58:40;10.63;;;8.23;;
63046;SDS011;62025;39.238;9.126;2024-02-21T06:01:06;11.43;;;8.05;;
63046;SDS011;62025;39.238;9.126;2024-02-21T06:03:33;13.60;;;8.30;;
63046;SDS011;62025;39.238;9.126;2024-02-21T06:05:59;13.63;;;7.80;;
63046;SDS011;62025;39.238;9.126;2024-02-21T06:08:26;12.45;;;8.48;;
63046;SDS011;62025;39.238;9.126;2024-02-21T06:10:52;13.35;;;8.30;;
63046;SDS011;62025;39.238;9.126;2024-02-21T06:13:21;12.07;;;8.45;;
63046;SDS011;62025;39.238;9.126;2024-02-21T06:15:48;12.05;;;8.73;;
63046;SDS011;62025;39.238;9.126;2024-02-21T06:18:16;13.10;;;8.23;;
63046;SDS011;62025;39.238;9.126;2024-02-21T06:20:43;16.33;;;9.00;;
63046;SDS011;62025;39.238;9.126;2024-02-21T06:23:09;12.63;;;8.98;;
63046;SDS011;62025;39.238;9.126;2024-02-21T06:25:36;13.10;;;8.35;;
63046;SDS011;62025;39.238;9.126;2024-02-21T06:28:03;10.55;;;8.10;;
63046;SDS011;62025;39.238;9.126;2024-02-21T06:30:30;10.50;;;8.30;;
63046;SDS011;62025;39.238;9.126;2024-02-21T06:32:56;11.73;;;8.70;;
63046;SDS011;62025;39.238;9.126;2024-02-21T06:35:22;11.98;;;8.93;;
63046;SDS011;62025;39.238;9.126;2024-02-21T06:37:50;12.68;;;8.65;;
63046;SDS011;62025;39.238;9.126;2024-02-21T06:40:17;12.18;;;8.77;;
63046;SDS011;62025;39.238;9.126;2024-02-21T06:45:11;11.70;;;8.77;;
63046;SDS011;62025;39.238;9.126;2024-02-21T06:47:37;12.73;;;8.57;;
63046;SDS011;62025;39.238;9.126;2024-02-21T06:50:03;15.32;;;8.98;;
63046;SDS011;62025;39.238;9.126;2024-02-21T06:52:30;12.50;;;8.95;;
63046;SDS011;62025;39.238;9.126;2024-02-21T06:54:56;11.30;;;8.52;;
63046;SDS011;62025;39.238;9.126;2024-02-21T06:57:22;12.55;;;9.00;;
63046;SDS011;62025;39.238;9.126;2024-02-21T06:59:48;12.45;;;9.25;;
63046;SDS011;62025;39.238;9.126;2024-02-21T07:02:14;16.08;;;8.68;;
63046;SDS011;62025;39.238;9.126;2024-02-21T07:04:40;12.80;;;8.70;;
63046;SDS011;62025;39.238;9.126;2024-02-21T07:07:06;12.15;;;9.43;;
63046;SDS011;62025;39.238;9.126;2024-02-21T07:09:32;16.58;;;8.55;;
63046;SDS011;62025;39.238;9.126;2024-02-21T07:11:59;15.40;;;8.55;;
63046;SDS011;62025;39.238;9.126;2024-02-21T07:14:25;14.02;;;8.25;;
63046;SDS011;62025;39.238;9.126;2024-02-21T07:16:51;13.65;;;9.88;;
63046;SDS011;62025;39.238;9.126;2024-02-21T07:19:17;14.05;;;8.90;;
63046;SDS011;62025;39.238;9.126;2024-02-21T07:21:43;13.25;;;9.05;;
63046;SDS011;62025;39.238;9.126;2024-02-21T07:24:09;15.02;;;8.65;;
63046;SDS011;62025;39.238;9.126;2024-02-21T07:26:35;12.77;;;8.93;;
63046;SDS011;62025;39.238;9.126;2024-02-21T07:29:01;15.30;;;9.40;;
63046;SDS011;62025;39.238;9.126;2024-02-21T07:31:27;11.30;;;8.65;;
63046;SDS011;62025;39.238;9.126;2024-02-21T07:33:53;15.75;;;9.63;;
63046;SDS011;62025;39.238;9.126;2024-02-21T07:36:28;15.80;;;9.80;;
63046;SDS011;62025;39.238;9.126;2024-02-21T07:41:24;16.33;;;9.32;;
63046;SDS011;62025;39.238;9.126;2024-02-21T07:43:51;17.42;;;9.10;;
63046;SDS011;62025;39.238;9.126;2024-02-21T07:46:20;14.05;;;8.73;;
63046;SDS011;62025;39.238;9.126;2024-02-21T07:51:13;13.35;;;8.43;;
63046;SDS011;62025;39.238;9.126;2024-02-21T07:53:41;12.98;;;9.15;;
63046;SDS011;62025;39.238;9.126;2024-02-21T07:56:13;11.23;;;7.93;;
63046;SDS011;62025;39.238;9.126;2024-02-21T07:58:40;9.73;;;7.90;;
63046;SDS011;62025;39.238;9.126;2024-02-21T08:01:07;9.38;;;7.82;;
63046;SDS011;62025;39.238;9.126;2024-02-21T08:03:34;14.93;;;8.57;;
63046;SDS011;62025;39.238;9.126;2024-02-21T08:06:00;11.00;;;7.90;;
63046;SDS011;62025;39.238;9.126;2024-02-21T08:08:28;12.13;;;8.20;;
63046;SDS011;62025;39.238;9.126;2024-02-21T08:10:54;14.15;;;7.40;;
63046;SDS011;62025;39.238;9.126;2024-02-21T08:13:20;14.90;;;8.38;;
63046;SDS011;62025;39.238;9.126;2024-02-21T08:15:46;12.80;;;7.72;;
63046;SDS011;62025;39.238;9.126;2024-02-21T08:18:12;10.63;;;7.75;;
63046;SDS011;62025;39.238;9.126;2024-02-21T08:20:38;9.60;;;6.85;;
63046;SDS011;62025;39.238;9.126;2024-02-21T08:23:03;7.78;;;6.88;;
63046;SDS011;62025;39.238;9.126;2024-02-21T08:25:29;9.63;;;7.00;;
63046;SDS011;62025;39.238;9.126;2024-02-21T08:27:57;10.38;;;7.03;;
63046;SDS011;62025;39.238;9.126;2024-02-21T08:30:24;12.77;;;7.00;;
63046;SDS011;62025;39.238;9.126;2024-02-21T08:32:51;12.02;;;7.50;;
63046;SDS011;62025;39.238;9.126;2024-02-21T08:35:19;10.60;;;7.63;;
63046;SDS011;62025;39.238;9.126;2024-02-21T08:37:47;9.07;;;7.03;;
63046;SDS011;62025;39.238;9.126;2024-02-21T08:40:14;9.98;;;7.28;;
63046;SDS011;62025;39.238;9.126;2024-02-21T08:42:42;11.05;;;7.22;;
63046;SDS011;62025;39.238;9.126;2024-02-21T08:45:09;13.35;;;7.60;;
63046;SDS011;62025;39.238;9.126;2024-02-21T08:47:35;8.85;;;6.85;;
63046;SDS011;62025;39.238;9.126;2024-02-21T08:50:05;11.43;;;6.93;;
63046;SDS011;62025;39.238;9.126;2024-02-21T08:52:31;8.15;;;6.53;;
63046;SDS011;62025;39.238;9.126;2024-02-21T08:54:57;9.52;;;6.57;;
63046;SDS011;62025;39.238;9.126;2024-02-21T08:57:23;8.52;;;6.53;;
63046;SDS011;62025;39.238;9.126;2024-02-21T08:59:49;9.40;;;7.00;;
63046;SDS011;62025;39.238;9.126;2024-02-21T09:02:15;11.05;;;7.60;;
63046;SDS011;62025;39.238;9.126;2024-02-21T09:04:41;9.82;;;7.60;;
63046;SDS011;62025;39.238;9.126;2024-02-21T09:07:09;8.77;;;7.13;;
63046;SDS011;62025;39.238;9.126;2024-02-21T09:09:36;9.90;;;6.53;;
63046;SDS011;62025;39.238;9.126;2024-02-21T09:12:04;9.25;;;6.80;;
63046;SDS011;62025;39.238;9.126;2024-02-21T09:14:32;8.52;;;6.80;;
63046;SDS011;62025;39.238;9.126;2024-02-21T09:16:58;8.55;;;6.55;;
63046;SDS011;62025;39.238;9.126;2024-02-21T09:19:24;9.52;;;7.43;;
63046;SDS011;62025;39.238;9.126;2024-02-21T09:21:50;9.18;;;6.47;;
63046;SDS011;62025;39.238;9.126;2024-02-21T09:24:18;8.38;;;6.20;;
63046;SDS011;62025;39.238;9.126;2024-02-21T09:26:43;9.85;;;6.93;;
63046;SDS011;62025;39.238;9.126;2024-02-21T09:29:09;7.18;;;6.30;;
63046;SDS011;62025;39.238;9.126;2024-02-21T09:31:35;10.57;;;6.70;;
63046;SDS011;62025;39.238;9.126;2024-02-21T09:34:04;9.02;;;6.97;;
63046;SDS011;62025;39.238;9.126;2024-02-21T09:36:30;8.93;;;6.53;;
63046;SDS011;62025;39.238;9.126;2024-02-21T09:38:56;9.00;;;7.00;;
63046;SDS011;62025;39.238;9.126;2024-02-21T09:41:25;8.05;;;6.50;;
63046;SDS011;62025;39.238;9.126;2024-02-21T09:43:54;8.45;;;7.03;;
63046;SDS011;62025;39.238;9.126;2024-02-21T09:46:32;8.65;;;6.45;;
63046;SDS011;62025;39.238;9.126;2024-02-21T09:49:33;9.85;;;6.32;;
63046;SDS011;62025;39.238;9.126;2024-02-21T09:52:01;9.35;;;6.20;;
63046;SDS011;62025;39.238;9.126;2024-02-21T09:54:29;7.10;;;5.93;;
63046;SDS011;62025;39.238;9.126;2024-02-21T09:56:59;6.45;;;5.70;;
63046;SDS011;62025;39.238;9.126;2024-02-21T09:59:30;8.55;;;5.28;;
63046;SDS011;62025;39.238;9.126;2024-02-21T10:01:58;7.97;;;4.78;;
63046;SDS011;62025;39.238;9.126;2024-02-21T10:04:27;5.72;;;4.70;;
63046;SDS011;62025;39.238;9.126;2024-02-21T10:06:54;5.13;;;4.28;;
63046;SDS011;62025;39.238;9.126;2024-02-21T10:09:24;6.30;;;4.10;;
63046;SDS011;62025;39.238;9.126;2024-02-21T10:11:55;5.60;;;4.30;;
63046;SDS011;62025;39.238;9.126;2024-02-21T10:14:22;8.10;;;4.60;;
63046;SDS011;62025;39.238;9.126;2024-02-21T10:16:48;5.78;;;4.10;;
63046;SDS011;62025;39.238;9.126;2024-02-21T10:19:24;5.28;;;3.78;;
63046;SDS011;62025;39.238;9.126;2024-02-21T10:24:51;4.63;;;3.63;;
63046;SDS011;62025;39.238;9.126;2024-02-21T10:27:19;5.85;;;3.95;;
63046;SDS011;62025;39.238;9.126;2024-02-21T10:29:49;4.72;;;3.20;;
63046;SDS011;62025;39.238;9.126;2024-02-21T10:32:16;4.88;;;3.33;;
63046;SDS011;62025;39.238;9.126;2024-02-21T10:34:43;4.07;;;3.50;;
63046;SDS011;62025;39.238;9.126;2024-02-21T10:37:11;3.63;;;2.90;;
63046;SDS011;62025;39.238;9.126;2024-02-21T10:39:38;4.60;;;3.10;;
63046;SDS011;62025;39.238;9.126;2024-02-21T10:42:05;4.20;;;3.45;;
63046;SDS011;62025;39.238;9.126;2024-02-21T10:44:38;4.40;;;3.50;;
63046;SDS011;62025;39.238;9.126;2024-02-21T10:47:09;5.38;;;3.40;;
63046;SDS011;62025;39.238;9.126;2024-02-21T10:49:39;5.50;;;3.40;;
63046;SDS011;62025;39.238;9.126;2024-02-21T10:54:44;3.50;;;3.05;;
63046;SDS011;62025;39.238;9.126;2024-02-21T10:57:18;4.22;;;3.20;;
63046;SDS011;62025;39.238;9.126;2024-02-21T10:59:47;3.60;;;2.67;;
63046;SDS011;62025;39.238;9.126;2024-02-21T11:02:14;3.67;;;2.58;;
63046;SDS011;62025;39.238;9.126;2024-02-21T11:04:40;3.60;;;2.90;;
63046;SDS011;62025;39.238;9.126;2024-02-21T11:07:07;3.10;;;2.67;;
63046;SDS011;62025;39.238;9.126;2024-02-21T11:09:34;4.85;;;2.60;;
63046;SDS011;62025;39.238;9.126;2024-02-21T11:12:04;4.45;;;2.95;;
63046;SDS011;62025;39.238;9.126;2024-02-21T11:14:31;4.20;;;3.10;;
63046;SDS011;62025;39.238;9.126;2024-02-21T11:16:58;4.10;;;2.90;;
63046;SDS011;62025;39.238;9.126;2024-02-21T11:19:25;3.58;;;3.15;;
63046;SDS011;62025;39.238;9.126;2024-02-21T11:21:54;5.70;;;4.18;;
63046;SDS011;62025;39.238;9.126;2024-02-21T11:24:32;6.40;;;4.25;;
63046;SDS011;62025;39.238;9.126;2024-02-21T11:27:09;5.50;;;3.33;;
63046;SDS011;62025;39.238;9.126;2024-02-21T11:29:47;4.55;;;2.22;;
63046;SDS011;62025;39.238;9.126;2024-02-21T11:32:18;3.00;;;2.20;;
63046;SDS011;62025;39.238;9.126;2024-02-21T11:35:02;3.05;;;2.05;;
63046;SDS011;62025;39.238;9.126;2024-02-21T11:37:33;2.20;;;1.88;;
63046;SDS011;62025;39.238;9.126;2024-02-21T11:40:02;2.88;;;2.15;;
63046;SDS011;62025;39.238;9.126;2024-02-21T11:42:29;2.95;;;2.30;;
63046;SDS011;62025;39.238;9.126;2024-02-21T11:44:56;2.60;;;2.40;;
63046;SDS011;62025;39.238;9.126;2024-02-21T11:47:23;3.92;;;2.67;;
63046;SDS011;62025;39.238;9.126;2024-02-21T11:49:49;2.45;;;1.88;;
63046;SDS011;62025;39.238;9.126;2024-02-21T11:52:19;3.55;;;2.05;;
63046;SDS011;62025;39.238;9.126;2024-02-21T11:54:50;2.33;;;2.10;;
63046;SDS011;62025;39.238;9.126;2024-02-21T11:57:17;2.80;;;2.20;;
63046;SDS011;62025;39.238;9.126;2024-02-21T11:59:44;2.45;;;1.90;;
63046;SDS011;62025;39.238;9.126;2024-02-21T12:02:11;2.13;;;1.90;;
63046;SDS011;62025;39.238;9.126;2024-02-21T12:04:38;2.35;;;1.67;;
63046;SDS011;62025;39.238;9.126;2024-02-21T12:07:04;2.08;;;1.60;;
63046;SDS011;62025;39.238;9.126;2024-02-21T12:09:31;2.30;;;1.50;;
63046;SDS011;62025;39.238;9.126;2024-02-21T12:14:28;2.35;;;1.60;;
63046;SDS011;62025;39.238;9.126;2024-02-21T12:16:56;1.42;;;1.33;;
63046;SDS011;62025;39.238;9.126;2024-02-21T12:19:22;2.78;;;1.50;;
63046;SDS011;62025;39.238;9.126;2024-02-21T12:21:49;2.70;;;1.67;;
63046;SDS011;62025;39.238;9.126;2024-02-21T12:24:22;1.63;;;1.45;;
63046;SDS011;62025;39.238;9.126;2024-02-21T12:26:50;4.32;;;1.80;;
63046;SDS011;62025;39.238;9.126;2024-02-21T12:29:22;1.65;;;1.45;;
63046;SDS011;62025;39.238;9.126;2024-02-21T12:31:51;1.95;;;1.55;;
63046;SDS011;62025;39.238;9.126;2024-02-21T12:34:19;1.90;;;1.67;;
63046;SDS011;62025;39.238;9.126;2024-02-21T12:36:47;2.08;;;1.60;;
63046;SDS011;62025;39.238;9.126;2024-02-21T12:39:13;2.33;;;1.73;;
63046;SDS011;62025;39.238;9.126;2024-02-21T12:41:39;2.83;;;2.10;;
63046;SDS011;62025;39.238;9.126;2024-02-21T12:44:06;3.05;;;2.03;;
63046;SDS011;62025;39.238;9.126;2024-02-21T12:46:33;3.80;;;2.00;;
63046;SDS011;62025;39.238;9.126;2024-02-21T12:49:00;5.30;;;2.13;;
63046;SDS011;62025;39.238;9.126;2024-02-21T12:51:27;3.83;;;2.15;;
63046;SDS011;62025;39.238;9.126;2024-02-21T12:53:52;2.00;;;1.42;;
63046;SDS011;62025;39.238;9.126;2024-02-21T12:56:19;2.50;;;1.60;;
63046;SDS011;62025;39.238;9.126;2024-02-21T12:58:45;2.47;;;1.60;;
63046;SDS011;62025;39.238;9.126;2024-02-21T13:01:11;2.00;;;1.58;;
63046;SDS011;62025;39.238;9.126;2024-02-21T13:03:37;1.88;;;1.30;;
63046;SDS011;62025;39.238;9.126;2024-02-21T13:06:03;3.58;;;1.70;;
63046;SDS011;62025;39.238;9.126;2024-02-21T13:08:30;1.50;;;1.40;;
63046;SDS011;62025;39.238;9.126;2024-02-21T13:10:56;1.90;;;1.70;;
63046;SDS011;62025;39.238;9.126;2024-02-21T13:13:22;2.47;;;2.00;;
63046;SDS011;62025;39.238;9.126;2024-02-21T13:15:48;2.95;;;2.05;;
63046;SDS011;62025;39.238;9.126;2024-02-21T13:18:14;3.90;;;2.10;;
63046;SDS011;62025;39.238;9.126;2024-02-21T13:20:40;3.70;;;2.42;;
63046;SDS011;62025;39.238;9.126;2024-02-21T13:23:06;4.32;;;3.55;;
63046;SDS011;62025;39.238;9.126;2024-02-21T13:25:32;3.78;;;3.00;;
63046;SDS011;62025;39.238;9.126;2024-02-21T13:27:58;3.75;;;2.92;;
63046;SDS011;62025;39.238;9.126;2024-02-21T13:30:24;5.00;;;3.30;;
63046;SDS011;62025;39.238;9.126;2024-02-21T13:32:51;4.05;;;2.65;;
63046;SDS011;62025;39.238;9.126;2024-02-21T13:35:17;5.60;;;3.60;;
63046;SDS011;62025;39.238;9.126;2024-02-21T13:37:43;3.50;;;3.20;;
63046;SDS011;62025;39.238;9.126;2024-02-21T13:40:09;3.72;;;3.40;;
63046;SDS011;62025;39.238;9.126;2024-02-21T13:42:36;6.10;;;3.30;;
63046;SDS011;62025;39.238;9.126;2024-02-21T13:45:03;6.30;;;3.20;;
63046;SDS011;62025;39.238;9.126;2024-02-21T13:47:33;4.03;;;3.03;;
63046;SDS011;62025;39.238;9.126;2024-02-21T13:50:01;5.20;;;3.25;;
63046;SDS011;62025;39.238;9.126;2024-02-21T13:52:34;8.18;;;3.40;;
63046;SDS011;62025;39.238;9.126;2024-02-21T13:55:00;6.05;;;3.70;;
63046;SDS011;62025;39.238;9.126;2024-02-21T13:57:26;4.47;;;3.53;;
63046;SDS011;62025;39.238;9.126;2024-02-21T13:59:52;4.05;;;3.20;;
63046;SDS011;62025;39.238;9.126;2024-02-21T14:02:18;3.88;;;3.22;;
63046;SDS011;62025;39.238;9.126;2024-02-21T14:04:44;4.07;;;3.35;;
63046;SDS011;62025;39.238;9.126;2024-02-21T14:07:10;3.20;;;2.72;;
63046;SDS011;62025;39.238;9.126;2024-02-21T14:09:36;3.20;;;2.90;;
63046;SDS011;62025;39.238;9.126;2024-02-21T14:12:02;5.95;;;3.63;;
63046;SDS011;62025;39.238;9.126;2024-02-21T14:14:28;3.60;;;2.97;;
63046;SDS011;62025;39.238;9.126;2024-02-21T14:16:54;2.95;;;2.65;;
63046;SDS011;62025;39.238;9.126;2024-02-21T14:19:21;4.47;;;2.95;;
63046;SDS011;62025;39.238;9.126;2024-02-21T14:21:47;3.17;;;2.55;;
63046;SDS011;62025;39.238;9.126;2024-02-21T14:24:13;18.63;;;3.05;;
63046;SDS011;62025;39.238;9.126;2024-02-21T14:26:39;4.28;;;2.78;;
63046;SDS011;62025;39.238;9.126;2024-02-21T14:29:06;4.85;;;2.60;;
63046;SDS011;62025;39.238;9.126;2024-02-21T14:31:32;4.15;;;2.42;;
63046;SDS011;62025;39.238;9.126;2024-02-21T14:33:58;2.90;;;2.15;;
63046;SDS011;62025;39.238;9.126;2024-02-21T14:36:26;2.92;;;2.20;;
63046;SDS011;62025;39.238;9.126;2024-02-21T14:38:52;2.58;;;2.10;;
63046;SDS011;62025;39.238;9.126;2024-02-21T14:41:18;2.67;;;2.10;;
63046;SDS011;62025;39.238;9.126;2024-02-21T14:43:44;3.40;;;2.30;;
63046;SDS011;62025;39.238;9.126;2024-02-21T14:46:11;4.53;;;2.47;;
63046;SDS011;62025;39.238;9.126;2024-02-21T14:48:38;6.35;;;2.40;;
63046;SDS011;62025;39.238;9.126;2024-02-21T14:51:04;5.18;;;2.70;;
63046;SDS011;62025;39.238;9.126;2024-02-21T14:53:30;5.25;;;2.30;;
63046;SDS011;62025;39.238;9.126;2024-02-21T14:55:56;3.35;;;2.50;;
63046;SDS011;62025;39.238;9.126;2024-02-21T14:58:25;4.20;;;2.55;;
63046;SDS011;62025;39.238;9.126;2024-02-21T15:00:52;2.97;;;2.38;;
63046;SDS011;62025;39.238;9.126;2024-02-21T15:03:19;4.72;;;2.38;;